It's Sunday,
December 8th, 2019
User not logged in
[Run Race Header Image][Run Race logo]
  
Race webcasting is attempted by race directors and their support staff. Please remember that conditions under which they're working may make it difficult to post timely webcast updates... your interest and patience is appreciated!
Race Information
Race Name:2nd Annual Indiana Trail 100
Location:Albion
State:Indiana, United States
 button: button: Webcast Autoplay
Event Information
Name of Event:100 Mile Trail
Distance:100 Miles
Started Date/Time:Saturday April 26th, 2014, 5:59:34.15 am
button: Assign Numbers  
Checkpoint:SchOut4
Distance:54.31 Miles
Gun Start Time:Saturday April 26th, 2014 5:59:34.15 am
Calculate Chip Start Time:< not set >
Y or N... Calculate splits based upon participant chip start time?
Allow Early Chip Start Time:< not set >
Y or N... Allow participants a chip start time prior to gun start?
Pos Race
Number
NameAgeSexTimePace 
1166Jim Trout44M8:39:02.39:33.4
2141Shan Riggs35M8:42:54.69:37.7Sat Apr 26th, 2014 2:42:28 pm
314John Bertram51M8:58:51.79:55.3Sat Apr 26th, 2014 2:58:25 pm
4148Travis Shields37M9:17:59.810:16.5Sat Apr 26th, 2014 3:17:33 pm
5182Craig Wheeler52M9:18:57.210:17.5Sat Apr 26th, 2014 3:18:31 pm
641Paul Dott31M9:21:22.710:20.2Sat Apr 26th, 2014 3:20:56 pm
734Vincent Corona30M9:23:27.810:22.5Sat Apr 26th, 2014 3:23:01 pm
8151Jen Skelly34F9:24:46.710:24.0Sat Apr 26th, 2014 3:24:20 pm
9149Todd Siebert32M9:26:28.110:25.8Sat Apr 26th, 2014 3:26:02 pm
10158Paul Stofko38M9:27:54.510:27.4Sat Apr 26th, 2014 3:27:28 pm
1126Jessica Campbell21F9:33:35.310:33.7Sat Apr 26th, 2014 3:33:09 pm
12172Kenneth Westerman55M9:37:22.810:37.9Sat Apr 26th, 2014 3:36:56 pm
1328Tony Cesario50M9:56:34.410:59.1Sat Apr 26th, 2014 3:56:08 pm
1479David E. Jackson36M9:58:57.011:01.7Sat Apr 26th, 2014 3:58:31 pm
15140Kirk Ridenour54M10:14:36.311:19.0Sat Apr 26th, 2014 4:14:10 pm
16127Daniel Paige34M10:14:59.611:19.4Sat Apr 26th, 2014 4:14:33 pm
17129Ben Pearce19M10:16:28.911:21.1Sat Apr 26th, 2014 4:16:03 pm
18161Mika Thewes22F10:17:54.711:22.7Sat Apr 26th, 2014 4:17:28 pm
1920Erin Brady42F10:26:13.811:31.8Sat Apr 26th, 2014 4:25:47 pm
2068Shawn Hawk49M10:38:38.011:45.5Sat Apr 26th, 2014 4:38:12 pm
21104David Mentjes44M10:38:45.611:45.7Sat Apr 26th, 2014 4:38:19 pm
2287Ryan "Stormy" Knight37M10:42:41.911:50.0Sat Apr 26th, 2014 4:42:16 pm
23184Kinga Kokoc35F10:47:15.911:55.1Sat Apr 26th, 2014 4:46:50 pm
2450Linda Keuneke50F10:49:46.111:57.8Sat Apr 26th, 2014 4:49:20 pm
25162Mark Thill38M10:52:08.312:00.5Sat Apr 26th, 2014 4:51:42 pm
26145James Schroeder37M10:53:43.712:02.2Sat Apr 26th, 2014 4:53:17 pm
2754Tom Fifer51M10:58:41.012:07.7Sat Apr 26th, 2014 4:58:15 pm
2846Mike Else45M10:58:55.912:08.0Sat Apr 26th, 2014 4:58:30 pm
2924todd brown45M11:03:45.612:13.3Sat Apr 26th, 2014 5:03:19 pm
30113SIAMAK MOSTOUFI39M11:03:46.212:13.3Sat Apr 26th, 2014 5:03:20 pm
31126Julie Pagel29F11:04:00.712:13.6Sat Apr 26th, 2014 5:03:34 pm
32183Anastasia Andrychowski34F11:04:58.812:14.6Sat Apr 26th, 2014 5:04:32 pm
3363Jerret Halter32M11:05:06.712:14.8Sat Apr 26th, 2014 5:04:40 pm
3444Tanya Eggert44F11:05:13.412:14.9Sat Apr 26th, 2014 5:04:47 pm
3557Mark Gavorski48M11:06:31.712:16.4Sat Apr 26th, 2014 5:06:05 pm
36133Richard Plezia55M11:07:11.212:17.1Sat Apr 26th, 2014 5:06:45 pm
3736John Cushma40M11:09:39.212:19.8Sat Apr 26th, 2014 5:09:13 pm
3872Rich Henderson58M11:14:10.712:24.8Sat Apr 26th, 2014 5:13:44 pm
39125Jeff Oliver40M11:15:43.012:26.5Sat Apr 26th, 2014 5:15:17 pm
40103Chris McMahon54M11:16:49.212:27.7Sat Apr 26th, 2014 5:16:23 pm
41115Carolynn Nauta32F11:18:08.212:29.2Sat Apr 26th, 2014 5:17:42 pm
42154Mike Smith56M11:18:39.712:29.8Sat Apr 26th, 2014 5:18:13 pm
43114Larry Mullinnix49M11:19:07.112:30.3Sat Apr 26th, 2014 5:18:41 pm
44108Joshua Mock32M11:20:51.212:32.2Sat Apr 26th, 2014 5:20:25 pm
45134dave potter49M11:23:21.912:35.0Sat Apr 26th, 2014 5:22:56 pm
46177Eric Fritz46M11:27:25.412:39.4Sat Apr 26th, 2014 5:26:59 pm
47180Michael Linkogel43M11:28:23.112:40.5Sat Apr 26th, 2014 5:27:57 pm
4861Graham Grove36M11:28:34.212:40.7Sat Apr 26th, 2014 5:28:08 pm
495LEE ANDERSON56M11:29:29.612:41.7Sat Apr 26th, 2014 5:29:03 pm
5042Michael Dowdell38M11:32:02.412:44.5Sat Apr 26th, 2014 5:31:36 pm
5162Martin Guthrie47M11:32:20.212:44.9Sat Apr 26th, 2014 5:31:54 pm
52123Reggie O'HARA45M11:33:22.012:46.0Sat Apr 26th, 2014 5:32:56 pm
5340Noe j Dominguez45M11:35:41.412:48.6Sat Apr 26th, 2014 5:35:15 pm
54116David Nelson26M11:36:08.912:49.1Sat Apr 26th, 2014 5:35:43 pm
55107Kirk Misaka55M11:40:20.012:53.7Sat Apr 26th, 2014 5:39:54 pm
5656Helen Garen49F11:40:45.012:54.2Sat Apr 26th, 2014 5:40:19 pm
57156Phil Stapert47M11:41:34.012:55.1Sat Apr 26th, 2014 5:41:08 pm
588Brian Barger53M11:49:10.113:03.5Sat Apr 26th, 2014 5:48:44 pm
59147mark sheeran54M11:49:48.413:04.2Sat Apr 26th, 2014 5:49:22 pm
6066Dick Canterbury66M11:54:23.813:09.2Sat Apr 26th, 2014 5:53:57 pm
61169Chris Walker34M11:56:55.113:12.0Sat Apr 26th, 2014 5:56:29 pm
62178Joe Cuthbertson39M12:03:20.113:19.1Sat Apr 26th, 2014 6:02:54 pm
6391Bill Kulwicki55M12:03:47.813:19.6Sat Apr 26th, 2014 6:03:21 pm
64181Rene Samano28M12:03:59.513:19.8Sat Apr 26th, 2014 6:03:33 pm
6576Scott Hudson46M12:05:43.413:21.8Sat Apr 26th, 2014 6:05:17 pm
66143Matthew Santner37M12:05:45.413:21.8Sat Apr 26th, 2014 6:05:19 pm
6721Bob Brashear55M12:09:30.013:25.9Sat Apr 26th, 2014 6:09:04 pm
6883Chris Junken35M12:11:13.913:27.8Sat Apr 26th, 2014 6:10:48 pm
69159Steve Sunbury44M12:13:13.413:30.0Sat Apr 26th, 2014 6:12:47 pm
7025Aaron Butler32M12:15:41.313:32.8Sat Apr 26th, 2014 6:15:15 pm
71165Judd Trayling40M12:16:07.813:33.3Sat Apr 26th, 2014 6:15:41 pm
72171Marci Wease37F12:17:34.813:34.9Sat Apr 26th, 2014 6:17:08 pm
7339Nathan DeWall34M12:18:09.813:35.5Sat Apr 26th, 2014 6:17:43 pm
74135Rob Putz48M12:31:19.013:50.0Sat Apr 26th, 2014 6:30:53 pm
7552Jamie Farley35M12:37:25.413:56.8Sat Apr 26th, 2014 6:36:59 pm
7682Juan Juarez42M12:37:29.613:56.9Sat Apr 26th, 2014 6:37:03 pm
77174Randall Yost55M12:41:45.114:01.6Sat Apr 26th, 2014 6:41:19 pm
78170ben wallace57M12:43:09.714:03.1Sat Apr 26th, 2014 6:42:43 pm
7916toni bohannon46F12:43:22.114:03.3Sat Apr 26th, 2014 6:42:56 pm
80163Derek Tinnin46M12:46:46.914:07.1Sat Apr 26th, 2014 6:46:21 pm
81130Alfredo ''Moose'' Pedro45M12:47:56.114:08.4Sat Apr 26th, 2014 6:47:30 pm
82146Rob Schultz47M12:48:51.414:09.4Sat Apr 26th, 2014 6:48:25 pm
8364Cindylee Torres54F12:51:30.214:12.3Sat Apr 26th, 2014 6:51:04 pm
844Jonathon Amlung44M12:52:44.314:13.7Sat Apr 26th, 2014 6:52:18 pm
8599Daniel Maddox38M12:54:40.914:15.8Sat Apr 26th, 2014 6:54:15 pm
8693John Leighton53M12:55:17.914:16.5Sat Apr 26th, 2014 6:54:52 pm
8773Jeff Hogan45M12:57:05.814:18.5Sat Apr 26th, 2014 6:56:39 pm
8878Lauren Idzik43F12:57:08.114:18.6Sat Apr 26th, 2014 6:56:42 pm
8969Kent Heck52M12:58:03.714:19.6Sat Apr 26th, 2014 6:57:37 pm
90124Ethan Olds24M12:59:14.014:20.9Sat Apr 26th, 2014 6:58:48 pm
912Kurt Adams35M12:59:17.314:20.9Sat Apr 26th, 2014 6:58:51 pm
92121Mark Norfleet57M13:02:00.114:23.9Sat Apr 26th, 2014 7:01:34 pm
9317Andrew Borst43M13:02:49.414:24.8Sat Apr 26th, 2014 7:02:23 pm
9474Alex "ACE" Honigford33M13:08:13.914:30.8Sat Apr 26th, 2014 7:07:48 pm
956Ric Angara43M13:15:44.914:39.1Sat Apr 26th, 2014 7:15:19 pm
9648Karen Erba44F13:18:46.514:42.5Sat Apr 26th, 2014 7:18:20 pm
9731Mark Coates33M13:26:17.314:50.8Sat Apr 26th, 2014 7:25:51 pm
98120Caleb Nolen28M13:28:54.214:53.7Sat Apr 26th, 2014 7:28:28 pm
9986John Klarquist49M13:30:19.514:55.2Sat Apr 26th, 2014 7:29:53 pm
100105Craig Meseko29M13:40:29.515:06.5Sat Apr 26th, 2014 7:40:03 pm
10112Richard Barton61M13:45:33.015:12.0Sat Apr 26th, 2014 7:45:07 pm
10238James Davidson51M13:45:34.315:12.1Sat Apr 26th, 2014 7:45:08 pm
10370Mike Heider54M13:45:49.615:12.3Sat Apr 26th, 2014 7:45:23 pm
1049Crystal Barton38F13:45:55.315:12.5Sat Apr 26th, 2014 7:45:29 pm
105111James Cooper44M13:48:26.415:15.2Sat Apr 26th, 2014 7:48:00 pm
10633Aaron Conner41M13:49:01.915:15.9Sat Apr 26th, 2014 7:48:36 pm
107122Terry Null55M13:52:44.715:20.0Sat Apr 26th, 2014 7:52:18 pm
108132Catherine Pinkston29F13:52:55.015:20.2Sat Apr 26th, 2014 7:52:29 pm
10953Ramon Ferrer Jr34M13:53:17.815:20.6Sat Apr 26th, 2014 7:52:51 pm
11035Joe Cortez49M13:55:53.915:23.5Sat Apr 26th, 2014 7:55:28 pm
111176Stan Zygmunt51M13:59:50.915:27.8Sat Apr 26th, 2014 7:59:25 pm
11218James Bowers36M13:59:57.115:28.0Sat Apr 26th, 2014 7:59:31 pm
113150Robert Siscoe59M14:00:53.415:29.0Sat Apr 26th, 2014 8:00:27 pm
114101Sondra Marker50F14:03:47.115:32.2Sat Apr 26th, 2014 8:03:21 pm
11511Mark Barton57M14:03:48.115:32.2Sat Apr 26th, 2014 8:03:22 pm
116137Jamie Quarandillo40F14:13:09.615:42.5Sat Apr 26th, 2014 8:12:43 pm
11747David Englund46M14:18:58.115:49.0Sat Apr 26th, 2014 8:18:32 pm
11881MELISSA JOYCE-HASSAN49F14:26:47.415:57.6Sat Apr 26th, 2014 8:26:21 pm
119102Rick McClain52M14:28:27.815:59.5Sat Apr 26th, 2014 8:28:01 pm
120167Ali Turfe50M14:34:52.316:06.5Sat Apr 26th, 2014 8:34:26 pm
12123Kimmie Brown34F14:38:32.916:10.6Sat Apr 26th, 2014 8:38:07 pm
12297Suann Lundsberg38F14:43:55.216:16.5Sat Apr 26th, 2014 8:43:29 pm
123173Michael Wolff41M14:50:32.316:23.8Sat Apr 26th, 2014 8:50:06 pm
12415sandra bocchicchio41F15:00:38.516:35.0Sat Apr 26th, 2014 9:00:12 pm
125138Frank Rampton57M15:12:39.816:48.3Sat Apr 26th, 2014 9:12:13 pm

Event Information
Name of Event:50 Mile Trail
Distance:50 Miles
Started Date/Time:Saturday April 26th, 2014, 5:59:34.15 am
button: Assign Numbers 
2004-2019 : All rights reserved
Terms and Conditions